Observation data for Memphis on 11/09/2019      Previous  Date       Current Mesonet Observations  Soil Data  Daily Summary Page  Observations in Plain Language
KMES 090600Z 21003KT 01/M01 A3026 RMK A01 T00081005  RH  092%=      5-min Rain = 0
KMES 090605Z 21003KT 01/M00 A3025 RMK A01 T00071003  RH  094%=      5-min Rain = 0
KMES 090610Z 21004KT 01/M00 A3025 RMK A01 T00101001  RH  094%=      5-min Rain = 0
KMES 090615Z 21004KT 01/M01 A3025 RMK A01 T00061006  RH  093%=      5-min Rain = 0
KMES 090620Z 21004KT 01/M00 A3025 RMK A01 T00081002  RH  094%=      5-min Rain = 0
KMES 090625Z 21003KT 01/00 A3025 RMK A01 T001000-0  RH  094%=      5-min Rain = 0
KMES 090630Z 21002KT 01/M00 A3025 RMK A01 T00101001  RH  094%=      5-min Rain = 0
KMES 090635Z 23001KT 01/M00 A3025 RMK A01 T00081003  RH  093%=      5-min Rain = 0
KMES 090640Z 26000KT 00/M01 A3025 RMK A01 T00041008  RH  093%=      5-min Rain = 0
KMES 090645Z 26002KT 00/M01 A3024 RMK A01 T00021008  RH  094%=      5-min Rain = 0
KMES 090650Z 27003KT 01/00 A3025 RMK A01 T00100003  RH  096%=      5-min Rain = 0
KMES 090655Z 29003KT 02/01 A3025 RMK A01 T00170008  RH  095%=      5-min Rain = 0
KMES 090700Z 31002KT 02/01 A3024 RMK A01 T00160006  RH  094%=      5-min Rain = 0
KMES 090705Z 31001KT 01/00 A3024 RMK A01 T00120002  RH  094%=      5-min Rain = 0
KMES 090710Z 30002KT 01/M00 A3024 RMK A01 T00081002  RH  094%=      5-min Rain = 0
KMES 090715Z 31001KT 01/M01 A3024 RMK A01 T00051005  RH  094%=      5-min Rain = 0
KMES 090720Z 31001KT 01/M00 A3024 RMK A01 T00051004  RH  095%=      5-min Rain = 0
KMES 090725Z 31000KT 01/M00 A3024 RMK A01 T00061003  RH  095%=      5-min Rain = 0
KMES 090730Z 00000KT 01/M00 A3024 RMK A01 T00061003  RH  095%=      5-min Rain = 0
KMES 090735Z 01001KT 01/M00 A3024 RMK A01 T00061002  RH  095%=      5-min Rain = 0
KMES 090740Z 01002KT 00/M01 A3024 RMK A01 T00021007  RH  094%=      5-min Rain = 0
KMES 090745Z 01002KT 00/M01 A3024 RMK A01 T00011008  RH  095%=      5-min Rain = 0
KMES 090750Z 01002KT 00/01 A3024 RMK A01 T00-000-8  RH  095%=      5-min Rain = 0
KMES 090755Z 35001KT 00/M00 A3023 RMK A01 T00031004  RH  096%=      5-min Rain = 0
KMES 090800Z 35000KT 01/M00 A3023 RMK A01 T00061002  RH  096%=      5-min Rain = 0
KMES 090805Z 00000KT 00/M01 A3023 RMK A01 T00011007  RH  095%=      5-min Rain = 0
KMES 090810Z 35001KT M00/M01 A3023 RMK A01 T10021009  RH  096%=      5-min Rain = 0
KMES 090815Z 00000KT M00/M01 A3022 RMK A01 T10021009  RH  096%=      5-min Rain = 0
KMES 090820Z 34000KT M00/M01 A3022 RMK A01 T10031010  RH  096%=      5-min Rain = 0
KMES 090825Z 33001KT M00/M01 A3021 RMK A01 T10041011  RH  096%=      5-min Rain = 0
KMES 090830Z 30000KT M00/M01 A3021 RMK A01 T10031010  RH  096%=      5-min Rain = 0
KMES 090835Z 32000KT M00/M01 A3021 RMK A01 T10041011  RH  096%=      5-min Rain = 0
KMES 090840Z 31002KT M00/M01 A3021 RMK A01 T10041010  RH  097%=      5-min Rain = 0
KMES 090845Z 29001KT M00/M01 A3021 RMK A01 T10021008  RH  097%=      5-min Rain = 0
KMES 090850Z 29001KT M00/M01 A302 RMK A01 T10021008  RH  097%=      5-min Rain = 0
KMES 090855Z 31001KT M00/M01 A302 RMK A01 T10041010  RH  097%=      5-min Rain = 0
KMES 090900Z 34000KT M01/M01 A302 RMK A01 T10061013  RH  096%=      5-min Rain = 0
KMES 090905Z 34000KT M01/M01 A302 RMK A01 T10081014  RH  097%=      5-min Rain = 0
KMES 090910Z 00000KT M01/M01 A302 RMK A01 T10081014  RH  097%=      5-min Rain = 0
KMES 090915Z 10000KT M01/M02 A302 RMK A01 T10091015  RH  097%=      5-min Rain = 0
KMES 090920Z 09001KT M01/M02 A302 RMK A01 T10121018  RH  097%=      5-min Rain = 0
KMES 090925Z 11001KT M01/M02 A302 RMK A01 T10131019  RH  097%=      5-min Rain = 0
KMES 090930Z 14001KT M01/M02 A302 RMK A01 T10141019  RH  097%=      5-min Rain = 0
KMES 090935Z 19003KT M01/M02 A302 RMK A01 T10141019  RH  097%=      5-min Rain = 0
KMES 090940Z 19002KT M02/M02 A302 RMK A01 T10151021  RH  097%=      5-min Rain = 0
KMES 090945Z 21001KT M02/M02 A302 RMK A01 T10151020  RH  097%=      5-min Rain = 0
KMES 090950Z 25001KT M01/M02 A3019 RMK A01 T10141019  RH  098%=      5-min Rain = 0
KMES 090955Z 28001KT M01/M02 A3019 RMK A01 T10131017  RH  098%=      5-min Rain = 0
KMES 091000Z 29002KT M01/M02 A3019 RMK A01 T10121017  RH  098%=      5-min Rain = 0
KMES 091005Z 24002KT M01/M01 A3019 RMK A01 T10101013  RH  098%=      5-min Rain = 0
KMES 091010Z 00000KT M01/M01 A3019 RMK A01 T10081013  RH  098%=      5-min Rain = 0
KMES 091015Z 36001KT M01/M02 A3019 RMK A01 T10121017  RH  097%=      5-min Rain = 0
KMES 091020Z 35002KT M01/M02 A3019 RMK A01 T10141019  RH  097%=      5-min Rain = 0
KMES 091025Z 01002KT M01/M02 A3018 RMK A01 T10141018  RH  098%=      5-min Rain = 0
KMES 091030Z 35001KT M01/M02 A3018 RMK A01 T10141018  RH  098%=      5-min Rain = 0
KMES 091035Z 34001KT M01/M02 A3018 RMK A01 T10141018  RH  098%=      5-min Rain = 0
KMES 091040Z 35001KT M01/M02 A3018 RMK A01 T10131018  RH  098%=      5-min Rain = 0
KMES 091045Z 35002KT M01/M02 A3018 RMK A01 T10141018  RH  098%=      5-min Rain = 0
KMES 091050Z 36002KT M01/M02 A3018 RMK A01 T10131017  RH  098%=      5-min Rain = 0
KMES 091055Z 36002KT M01/M02 A3018 RMK A01 T10131017  RH  098%=      5-min Rain = 0
KMES 091100Z 34001KT M01/M02 A3018 RMK A01 T10141018  RH  098%=      5-min Rain = 0
KMES 091105Z 30000KT M02/M02 A3018 RMK A01 T10171022  RH  097%=      5-min Rain = 0
KMES 091110Z 27000KT M02/M02 A3018 RMK A01 T10201024  RH  098%=      5-min Rain = 0
KMES 091115Z 27000KT M02/M02 A3018 RMK A01 T10191023  RH  098%=      5-min Rain = 0
KMES 091120Z 27001KT M02/M02 A3018 RMK A01 T10181021  RH  098%=      5-min Rain = 0
KMES 091125Z 31001KT M02/M02 A3018 RMK A01 T10171020  RH  098%=      5-min Rain = 0
KMES 091130Z 32002KT M02/M02 A3018 RMK A01 T10171020  RH  099%=      5-min Rain = 0
KMES 091135Z 30002KT M01/M02 A3018 RMK A01 T10131015  RH  099%=      5-min Rain = 0
KMES 091140Z 31002KT M01/M02 A3018 RMK A01 T10121015  RH  099%=      5-min Rain = 0
KMES 091145Z 31002KT M02/M02 A3018 RMK A01 T10161020  RH  098%=      5-min Rain = 0
KMES 091150Z 32003KT M02/M02 A3019 RMK A01 T10181021  RH  098%=      5-min Rain = 0
KMES 091155Z 32003KT M02/M02 A3019 RMK A01 T10191022  RH  099%=      5-min Rain = 0
KMES 091200Z 32003KT M02/M02 A3019 RMK A01 T10171020  RH  099%=      5-min Rain = 0
KMES 091205Z 32003KT M02/M02 A3019 RMK A01 T10181020  RH  099%=      5-min Rain = 0
KMES 091210Z 32004KT M02/M02 A3019 RMK A01 T10161018  RH  099%=      5-min Rain = 0
KMES 091215Z 32003KT M01/M02 A3019 RMK A01 T10131015  RH  099%=      5-min Rain = 0
KMES 091220Z 36002KT M02/M02 A3019 RMK A01 T10151018  RH  099%=      5-min Rain = 0
KMES 091225Z 02001KT M02/M02 A3019 RMK A01 T10191022  RH  099%=      5-min Rain = 0
KMES 091230Z 34001KT M02/M02 A3019 RMK A01 T10201022  RH  099%=      5-min Rain = 0
KMES 091235Z 33002KT M02/M02 A3019 RMK A01 T10181021  RH  099%=      5-min Rain = 0
KMES 091240Z 33002KT M02/M02 A3019 RMK A01 T10181020  RH  099%=      5-min Rain = 0
KMES 091245Z 33002KT M02/M02 A3019 RMK A01 T10181020  RH  099%=      5-min Rain = 0
KMES 091250Z 32002KT M02/M02 A3019 RMK A01 T10181020  RH  099%=      5-min Rain = 0
KMES 091255Z 31002KT M02/M02 A3019 RMK A01 T10181020  RH  099%=      5-min Rain = 0
KMES 091300Z 30002KT M02/M02 A3019 RMK A01 T10181020  RH  099%=      5-min Rain = 0
KMES 091305Z 26003KT M02/M03 A3019 RMK A01 T10221025  RH  099%=      5-min Rain = 0
KMES 091310Z 25003KT M03/M03 A3019 RMK A01 T10251028  RH  099%=      5-min Rain = 0
KMES 091315Z 24002KT M02/M02 A3019 RMK A01 T10211023  RH  100%=      5-min Rain = 0
KMES 091320Z 33002KT M02/M02 A3019 RMK A01 T10221023  RH  099%=      5-min Rain = 0
KMES 091325Z 33003KT M02/M02 A3019 RMK A01 T10201021  RH  100%=      5-min Rain = 0
KMES 091330Z 32004KT M02/M02 A302 RMK A01 T10171019  RH  100%=      5-min Rain = 0
KMES 091335Z 30003KT M01/M02 A3019 RMK A01 T10131015  RH  100%=      5-min Rain = 0
KMES 091340Z 28003KT M01/M01 A3019 RMK A01 T10081009  RH  100%=      5-min Rain = 0
KMES 091345Z 28003KT M01/M01 A3019 RMK A01 T10081009  RH  100%=      5-min Rain = 0
KMES 091350Z 29002KT M00/M01 A3019 RMK A01 T10041005  RH  100%=      5-min Rain = 0
KMES 091355Z 28002KT 00/00 A302 RMK A01 T000000-1  RH  100%=      5-min Rain = 0
KMES 091400Z 27002KT 01/00 A302 RMK A01 T00060004  RH  100%=      5-min Rain = 0
KMES 091405Z 29001KT 01/01 A302 RMK A01 T00080006  RH  100%=      5-min Rain = 0
KMES 091410Z 25001KT 01/01 A302 RMK A01 T00140012  RH  100%=      5-min Rain = 0
KMES 091415Z 25001KT 02/02 A302 RMK A01 T00180016  RH  100%=      5-min Rain = 0
KMES 091420Z 25002KT 02/02 A302 RMK A01 T00220019  RH  100%=      5-min Rain = 0
KMES 091425Z 35001KT 03/02 A302 RMK A01 T00270024  RH  100%=      5-min Rain = 0
KMES 091430Z 24001KT 04/03 A302 RMK A01 T00350032  RH  100%=      5-min Rain = 0
KMES 091435Z 22002KT 04/04 A302 RMK A01 T00400036  RH  099%=      5-min Rain = 0
KMES 091440Z 18001KT 05/04 A302 RMK A01 T00460042  RH  099%=      5-min Rain = 0
KMES 091445Z 19002KT 05/05 A302 RMK A01 T00540050  RH  099%=      5-min Rain = 0
KMES 091450Z 20004KT 06/05 A302 RMK A01 T00550048  RH  097%=      5-min Rain = 0
KMES 091455Z 22002KT 06/05 A302 RMK A01 T00600053  RH  097%=      5-min Rain = 0
KMES 091500Z 21002KT 07/06 A302 RMK A01 T00670060  RH  097%=      5-min Rain = 0
KMES 091505Z 21003KT 07/07 A3021 RMK A01 T00730065  RH  097%=      5-min Rain = 0
KMES 091510Z 22003KT 08/07 A3021 RMK A01 T00780066  RH  095%=      5-min Rain = 0
KMES 091515Z 23002KT 08/07 A3021 RMK A01 T00830068  RH  092%=      5-min Rain = 0
KMES 091520Z 22003KT 09/07 A3021 RMK A01 T00880067  RH  089%=      5-min Rain = 0
KMES 091525Z 22002KT 09/07 A3021 RMK A01 T00920067  RH  086%=      5-min Rain = 0
KMES 091530Z 21003KT 10/07 A3021 RMK A01 T00960065  RH  083%=      5-min Rain = 0
KMES 091535Z 22003KT 10/06 A3021 RMK A01 T00980062  RH  080%=      5-min Rain = 0
KMES 091540Z 21002KT 10/06 A3021 RMK A01 T01010061  RH  078%=      5-min Rain = 0
KMES 091545Z 21003KT 10/06 A3021 RMK A01 T01040059  RH  075%=      5-min Rain = 0
KMES 091550Z 23002KT 11/06 A3021 RMK A01 T01070059  RH  074%=      5-min Rain = 0
KMES 091555Z 24002KT 11/06 A3021 RMK A01 T01110060  RH  072%=      5-min Rain = 0
KMES 091600Z 23002KT 12/06 A3021 RMK A01 T01150057  RH  069%=      5-min Rain = 0
KMES 091605Z 23002KT 12/06 A3021 RMK A01 T01200056  RH  067%=      5-min Rain = 0
KMES 091610Z 24002KT 12/05 A3021 RMK A01 T01240054  RH  064%=      5-min Rain = 0
KMES 091615Z 23002KT 13/05 A302 RMK A01 T01280051  RH  061%=      5-min Rain = 0
KMES 091620Z 22001KT 13/05 A302 RMK A01 T01340051  RH  059%=      5-min Rain = 0
KMES 091625Z 25000KT 14/06 A302 RMK A01 T01420055  RH  057%=      5-min Rain = 0
KMES 091630Z 35001KT 15/06 A302 RMK A01 T01490055  RH  055%=      5-min Rain = 0
KMES 091635Z 23000KT 16/06 A302 RMK A01 T01550056  RH  053%=      5-min Rain = 0
KMES 091640Z 14000KT 16/05 A302 RMK A01 T01640053  RH  049%=      5-min Rain = 0
KMES 091645Z 17001KT 17/05 A302 RMK A01 T01670049  RH  046%=      5-min Rain = 0
KMES 091650Z 02001KT 17/05 A302 RMK A01 T01680051  RH  047%=      5-min Rain = 0
KMES 091655Z 20001KT 17/05 A302 RMK A01 T01670050  RH  047%=      5-min Rain = 0
KMES 091700Z 19000KT 17/05 A302 RMK A01 T01670049  RH  047%=      5-min Rain = 0
KMES 091705Z 14001KT 17/05 A302 RMK A01 T01720051  RH  046%=      5-min Rain = 0
KMES 091710Z 15002KT 18/05 A302 RMK A01 T01760053  RH  045%=      5-min Rain = 0
KMES 091715Z 13002KT 18/05 A302 RMK A01 T01790053  RH  045%=      5-min Rain = 0
KMES 091720Z 16003G8KT 18/05 A302 RMK A01 T01800051  RH  043%=      5-min Rain = 0
KMES 091725Z 15003KT 18/05 A3019 RMK A01 T01820053  RH  044%=      5-min Rain = 0
KMES 091730Z 17003KT 19/05 A3019 RMK A01 T01860054  RH  043%=      5-min Rain = 0
KMES 091735Z 14005KT 19/06 A3019 RMK A01 T01870056  RH  043%=      5-min Rain = 0
KMES 091740Z 14005KT 19/06 A3019 RMK A01 T01880056  RH  043%=      5-min Rain = 0
KMES 091745Z 15005KT 19/06 A3018 RMK A01 T01890057  RH  043%=      5-min Rain = 0
KMES 091750Z 13004KT 19/05 A3018 RMK A01 T01910054  RH  042%=      5-min Rain = 0
KMES 091755Z 13005KT 19/05 A3018 RMK A01 T01920050  RH  040%=      5-min Rain = 0
KMES 091800Z 14005KT 20/05 A3017 RMK A01 T01950045  RH  038%=      5-min Rain = 0
KMES 091805Z 13006KT 20/04 A3017 RMK A01 T01980044  RH  037%=      5-min Rain = 0
KMES 091810Z 14005KT 20/04 A3016 RMK A01 T02000043  RH  036%=      5-min Rain = 0
KMES 091815Z 16004KT 20/03 A3016 RMK A01 T02030032  RH  033%=      5-min Rain = 0
KMES 091820Z 13005KT 21/03 A3016 RMK A01 T02060030  RH  032%=      5-min Rain = 0
KMES 091825Z 16004KT 21/04 A3015 RMK A01 T02090037  RH  033%=      5-min Rain = 0
KMES 091830Z 18005G11KT 21/04 A3015 RMK A01 T02120036  RH  032%=      5-min Rain = 0
KMES 091835Z 20005KT 21/04 A3015 RMK A01 T02110035  RH  032%=      5-min Rain = 0
KMES 091840Z 21005KT 21/04 A3014 RMK A01 T02120037  RH  032%=      5-min Rain = 0
KMES 091845Z 22006KT 21/03 A3014 RMK A01 T02140033  RH  031%=      5-min Rain = 0
KMES 091850Z 23007KT 21/03 A3014 RMK A01 T02120029  RH  030%=      5-min Rain = 0
KMES 091855Z 20006KT 21/02 A3014 RMK A01 T02140015  RH  027%=      5-min Rain = 0
KMES 091900Z 23006KT 22/01 A3013 RMK A01 T02180009  RH  025%=      5-min Rain = 0
KMES 091905Z 23006KT 22/00 A3013 RMK A01 T02170004  RH  025%=      5-min Rain = 0
KMES 091910Z 23004KT 22/01 A3013 RMK A01 T02180012  RH  026%=      5-min Rain = 0
KMES 091915Z 24006KT 22/01 A3012 RMK A01 T02210006  RH  024%=      5-min Rain = 0
KMES 091920Z 23006KT 22/00 A3012 RMK A01 T02230001  RH  023%=      5-min Rain = 0
KMES 091925Z 22005KT 22/00 A3012 RMK A01 T02230000  RH  023%=      5-min Rain = 0
KMES 091930Z 21005KT 22/00 A3012 RMK A01 T02230001  RH  023%=      5-min Rain = 0
KMES 091935Z 22004G11KT 23/01 A3012 RMK A01 T02250005  RH  024%=      5-min Rain = 0
KMES 091940Z 17006KT 23/01 A3011 RMK A01 T02270006  RH  023%=      5-min Rain = 0
KMES 091945Z 18006KT 23/01 A3011 RMK A01 T02290011  RH  024%=      5-min Rain = 0
KMES 091950Z 20005KT 23/01 A3011 RMK A01 T02310011  RH  024%=      5-min Rain = 0
KMES 091955Z 22006KT 23/01 A301 RMK A01 T02330010  RH  023%=      5-min Rain = 0
KMES 092000Z 18003KT 23/01 A301 RMK A01 T02320009  RH  023%=      5-min Rain = 0
KMES 092005Z 20004KT 24/01 A301 RMK A01 T02350010  RH  023%=      5-min Rain = 0
KMES 092010Z 22006KT 24/01 A301 RMK A01 T02370009  RH  023%=      5-min Rain = 0
KMES 092015Z 20005G10KT 24/01 A301 RMK A01 T02380009  RH  022%=      5-min Rain = 0
KMES 092020Z 20006KT 24/01 A3009 RMK A01 T02380007  RH  022%=      5-min Rain = 0
KMES 092025Z 19007KT 24/01 A3009 RMK A01 T02390007  RH  022%=      5-min Rain = 0
KMES 092030Z 21006KT 24/01 A3009 RMK A01 T02380007  RH  022%=      5-min Rain = 0
KMES 092035Z 20007KT 24/00 A3009 RMK A01 T02390003  RH  021%=      5-min Rain = 0
KMES 092040Z 22006KT 24/01 A3009 RMK A01 T02390006  RH  022%=      5-min Rain = 0
KMES 092045Z 22006KT 24/01 A3008 RMK A01 T02390012  RH  023%=      5-min Rain = 0
KMES 092050Z 21008KT 24/02 A3008 RMK A01 T02420018  RH  023%=      5-min Rain = 0
KMES 092055Z 22010KT 24/03 A3008 RMK A01 T02430025  RH  025%=      5-min Rain = 0
KMES 092100Z 21007KT 24/03 A3008 RMK A01 T02430027  RH  025%=      5-min Rain = 0
KMES 092105Z 20007KT 24/03 A3007 RMK A01 T02440027  RH  025%=      5-min Rain = 0
KMES 092110Z 23007KT 24/03 A3007 RMK A01 T02440028  RH  025%=      5-min Rain = 0
KMES 092115Z 23005KT 25/03 A3007 RMK A01 T02450028  RH  025%=      5-min Rain = 0
KMES 092120Z 20005KT 25/03 A3007 RMK A01 T02470028  RH  024%=      5-min Rain = 0
KMES 092125Z 20007G14KT 25/03 A3007 RMK A01 T02490027  RH  024%=      5-min Rain = 0
KMES 092130Z 21007G12KT 25/03 A3006 RMK A01 T02490026  RH  024%=      5-min Rain = 0
KMES 092135Z 21007KT 25/02 A3006 RMK A01 T02500024  RH  023%=      5-min Rain = 0
KMES 092140Z 21006KT 25/02 A3006 RMK A01 T02500023  RH  023%=      5-min Rain = 0
KMES 092145Z 17006KT 25/02 A3006 RMK A01 T02500021  RH  023%=      5-min Rain = 0
KMES 092150Z 19005KT 25/02 A3006 RMK A01 T02510021  RH  023%=      5-min Rain = 0
KMES 092155Z 17002KT 25/02 A3006 RMK A01 T02540021  RH  022%=      5-min Rain = 0
KMES 092200Z 17001KT 26/02 A3005 RMK A01 T02590021  RH  022%=      5-min Rain = 0
KMES 092205Z 24003KT 26/02 A3005 RMK A01 T02590020  RH  021%=      5-min Rain = 0
KMES 092210Z 24004KT 26/02 A3005 RMK A01 T02560021  RH  022%=      5-min Rain = 0
KMES 092215Z 20006KT 26/00 A3005 RMK A01 T02550003  RH  019%=      5-min Rain = 0
KMES 092220Z 19007KT 26/M02 A3005 RMK A01 T02551018  RH  017%=      5-min Rain = 0
KMES 092225Z 21009KT 25/M03 A3005 RMK A01 T02541028  RH  015%=      5-min Rain = 0
KMES 092230Z 20008KT 25/M02 A3004 RMK A01 T02531021  RH  016%=      5-min Rain = 0
KMES 092235Z 21007KT 25/M01 A3004 RMK A01 T02531014  RH  017%=      5-min Rain = 0
KMES 092240Z 19009KT 25/M01 A3004 RMK A01 T02511011  RH  018%=      5-min Rain = 0
KMES 092245Z 20008KT 25/M01 A3004 RMK A01 T02501013  RH  018%=      5-min Rain = 0
KMES 092250Z 19007KT 25/M02 A3004 RMK A01 T02491016  RH  017%=      5-min Rain = 0
KMES 092255Z 19007KT 25/M02 A3004 RMK A01 T02471017  RH  017%=      5-min Rain = 0
KMES 092300Z 19007KT 25/M02 A3004 RMK A01 T02461019  RH  017%=      5-min Rain = 0
KMES 092305Z 19007KT 24/M02 A3004 RMK A01 T02441022  RH  017%=      5-min Rain = 0
KMES 092310Z 19006KT 24/M03 A3004 RMK A01 T02421027  RH  017%=      5-min Rain = 0
KMES 092315Z 18005KT 24/M03 A3004 RMK A01 T02401028  RH  017%=      5-min Rain = 0
KMES 092320Z 18005KT 24/M03 A3004 RMK A01 T02371029  RH  017%=      5-min Rain = 0
KMES 092325Z 18005KT 23/M03 A3004 RMK A01 T02341026  RH  018%=      5-min Rain = 0
KMES 092330Z 18006KT 23/M02 A3004 RMK A01 T02301023  RH  019%=      5-min Rain = 0
KMES 092335Z 18006KT 23/M02 A3004 RMK A01 T02261021  RH  019%=      5-min Rain = 0
KMES 092340Z 18005KT 22/M02 A3004 RMK A01 T02231020  RH  020%=      5-min Rain = 0
KMES 092345Z 19006KT 22/M02 A3004 RMK A01 T02191019  RH  020%=      5-min Rain = 0
KMES 092350Z 18006KT 22/M02 A3004 RMK A01 T02161019  RH  021%=      5-min Rain = 0
KMES 092355Z 18005KT 21/M02 A3004 RMK A01 T02141018  RH  021%=      5-min Rain = 0
KMES 100000Z 18005KT 21/M02 A3004 RMK A01 T02121017  RH  022%=      5-min Rain = 0
KMES 100005Z 18005KT 21/M02 A3004 RMK A01 T02091016  RH  022%=      5-min Rain = 0
KMES 100010Z 18005KT 21/M01 A3004 RMK A01 T02051014  RH  023%=      5-min Rain = 0
KMES 100015Z 18005KT 20/M01 A3005 RMK A01 T01991013  RH  024%=      5-min Rain = 0
KMES 100020Z 18005KT 20/M01 A3005 RMK A01 T01961012  RH  025%=      5-min Rain = 0
KMES 100025Z 18005KT 19/M01 A3005 RMK A01 T01941011  RH  025%=      5-min Rain = 0
KMES 100030Z 16005KT 19/M01 A3005 RMK A01 T01911011  RH  026%=      5-min Rain = 0
KMES 100035Z 17005KT 19/M01 A3005 RMK A01 T01851010  RH  027%=      5-min Rain = 0
KMES 100040Z 18005KT 18/M01 A3005 RMK A01 T01841008  RH  028%=      5-min Rain = 0
KMES 100045Z 18005KT 18/M01 A3005 RMK A01 T01841007  RH  028%=      5-min Rain = 0
KMES 100050Z 18005KT 18/M01 A3005 RMK A01 T01831006  RH  028%=      5-min Rain = 0
KMES 100055Z 17005KT 18/M01 A3005 RMK A01 T01811006  RH  029%=      5-min Rain = 0
KMES 100100Z 17005KT 18/M00 A3005 RMK A01 T01781004  RH  029%=      5-min Rain = 0
KMES 100105Z 17005KT 18/M00 A3005 RMK A01 T01751001  RH  031%=      5-min Rain = 0
KMES 100110Z 18005KT 17/00 A3005 RMK A01 T01730002  RH  032%=      5-min Rain = 0
KMES 100115Z 19004KT 17/01 A3005 RMK A01 T01720008  RH  033%=      5-min Rain = 0
KMES 100120Z 19005KT 17/02 A3005 RMK A01 T01720017  RH  036%=      5-min Rain = 0
KMES 100125Z 19005KT 17/03 A3005 RMK A01 T01730026  RH  038%=      5-min Rain = 0
KMES 100130Z 19005KT 18/03 A3005 RMK A01 T01750033  RH  039%=      5-min Rain = 0
KMES 100135Z 20006KT 18/04 A3005 RMK A01 T01770036  RH  040%=      5-min Rain = 0
KMES 100140Z 20007KT 18/04 A3005 RMK A01 T01770036  RH  040%=      5-min Rain = 0
KMES 100145Z 21006KT 17/04 A3005 RMK A01 T01730037  RH  041%=      5-min Rain = 0
KMES 100150Z 20006KT 17/04 A3005 RMK A01 T01710037  RH  042%=      5-min Rain = 0
KMES 100155Z 20006KT 17/04 A3005 RMK A01 T01670037  RH  043%=      5-min Rain = 0
KMES 100200Z 21005KT 16/04 A3005 RMK A01 T01620036  RH  044%=      5-min Rain = 0
KMES 100205Z 21006KT 16/04 A3005 RMK A01 T01580036  RH  045%=      5-min Rain = 0
KMES 100210Z 21006KT 16/04 A3005 RMK A01 T01560037  RH  046%=      5-min Rain = 0
KMES 100215Z 21006KT 16/04 A3005 RMK A01 T01550038  RH  046%=      5-min Rain = 0
KMES 100220Z 22007KT 15/04 A3005 RMK A01 T01540039  RH  047%=      5-min Rain = 0
KMES 100225Z 22007KT 15/04 A3005 RMK A01 T01530041  RH  048%=      5-min Rain = 0
KMES 100230Z 23006KT 15/04 A3005 RMK A01 T01510040  RH  049%=      5-min Rain = 0
KMES 100235Z 24004KT 15/04 A3005 RMK A01 T01460038  RH  049%=      5-min Rain = 0
KMES 100240Z 25003KT 14/03 A3005 RMK A01 T01440033  RH  048%=      5-min Rain = 0
KMES 100245Z 24003KT 14/03 A3005 RMK A01 T01380028  RH  048%=      5-min Rain = 0
KMES 100250Z 24005KT 13/03 A3005 RMK A01 T01300033  RH  053%=      5-min Rain = 0
KMES 100255Z 23006KT 13/04 A3005 RMK A01 T01340039  RH  053%=      5-min Rain = 0
KMES 100300Z 24006KT 14/04 A3005 RMK A01 T01370040  RH  053%=      5-min Rain = 0
KMES 100305Z 24005KT 14/04 A3005 RMK A01 T01370040  RH  053%=      5-min Rain = 0
KMES 100310Z 24005KT 14/04 A3005 RMK A01 T01360042  RH  054%=      5-min Rain = 0
KMES 100315Z 23005KT 13/04 A3005 RMK A01 T01340044  RH  056%=      5-min Rain = 0
KMES 100320Z 22005KT 13/05 A3005 RMK A01 T01330046  RH  057%=      5-min Rain = 0
KMES 100325Z 23004KT 13/05 A3005 RMK A01 T01330048  RH  058%=      5-min Rain = 0
KMES 100330Z 24005KT 13/05 A3005 RMK A01 T01330050  RH  059%=      5-min Rain = 0
KMES 100335Z 24005KT 13/05 A3005 RMK A01 T01330051  RH  059%=      5-min Rain = 0
KMES 100340Z 25004KT 13/05 A3005 RMK A01 T01320051  RH  059%=      5-min Rain = 0
KMES 100345Z 28002KT 13/05 A3005 RMK A01 T01310050  RH  059%=      5-min Rain = 0
KMES 100350Z 34002KT 12/04 A3005 RMK A01 T01200040  RH  059%=      5-min Rain = 0
KMES 100355Z 36002KT 10/03 A3006 RMK A01 T01030030  RH  062%=      5-min Rain = 0
KMES 100400Z 00002KT 10/03 A3006 RMK A01 T00950027  RH  064%=      5-min Rain = 0
KMES 100405Z 00002KT 09/03 A3006 RMK A01 T00910026  RH  065%=      5-min Rain = 0
KMES 100410Z 35002KT 09/03 A3006 RMK A01 T00880027  RH  067%=      5-min Rain = 0
KMES 100415Z 36002KT 09/03 A3006 RMK A01 T00870028  RH  068%=      5-min Rain = 0
KMES 100420Z 01003KT 09/03 A3006 RMK A01 T00850028  RH  069%=      5-min Rain = 0
KMES 100425Z 01004KT 08/03 A3006 RMK A01 T00830030  RH  071%=      5-min Rain = 0
KMES 100430Z 00004KT 08/03 A3006 RMK A01 T00820031  RH  072%=      5-min Rain = 0
KMES 100435Z 35003KT 08/03 A3006 RMK A01 T00810032  RH  072%=      5-min Rain = 0
KMES 100440Z 34002KT 08/03 A3006 RMK A01 T00810032  RH  073%=      5-min Rain = 0
KMES 100445Z 34001KT 08/03 A3006 RMK A01 T00790032  RH  073%=      5-min Rain = 0
KMES 100450Z 00000KT 08/03 A3006 RMK A01 T00780031  RH  074%=      5-min Rain = 0
KMES 100455Z 00000KT 08/03 A3006 RMK A01 T00760031  RH  074%=      5-min Rain = 0
KMES 100500Z 05000KT 07/03 A3006 RMK A01 T00740030  RH  075%=      5-min Rain = 0
KMES 100505Z 05002KT 07/03 A3006 RMK A01 T00720028  RH  075%=      5-min Rain = 0
KMES 100510Z 05002KT 07/03 A3006 RMK A01 T00680026  RH  076%=      5-min Rain = 0
KMES 100515Z 04002KT 07/03 A3006 RMK A01 T00670028  RH  077%=      5-min Rain = 0
KMES 100520Z 01002KT 07/03 A3006 RMK A01 T00700033  RH  079%=      5-min Rain = 0
KMES 100525Z 01002KT 07/04 A3006 RMK A01 T00730035  RH  078%=      5-min Rain = 0
KMES 100530Z 34003KT 07/04 A3006 RMK A01 T00730035  RH  078%=      5-min Rain = 0
KMES 100535Z 34003KT 08/04 A3005 RMK A01 T00750036  RH  078%=      5-min Rain = 0
KMES 100540Z 34002KT 07/03 A3005 RMK A01 T00730032  RH  077%=      5-min Rain = 0
KMES 100545Z 34002KT 07/03 A3006 RMK A01 T00690029  RH  077%=      5-min Rain = 0
KMES 100550Z 34001KT 07/03 A3006 RMK A01 T00680030  RH  078%=      5-min Rain = 0
KMES 100555Z 32000KT 07/03 A3006 RMK A01 T00670031  RH  079%=      5-min Rain = 0

Page generated in 0.0085 seconds.